sensor_id;sensor_type;location;lat;lon;timestamp;P1;durP1;ratioP1;P2;durP2;ratioP2
3333;SDS011;1679;50.392;8.008;2024-01-11T00:00:42;42.33;;;20.27;;
3333;SDS011;1679;50.392;8.008;2024-01-11T00:03:08;33.83;;;17.90;;
3333;SDS011;1679;50.392;8.008;2024-01-11T00:05:35;41.40;;;19.27;;
3333;SDS011;1679;50.392;8.008;2024-01-11T00:08:00;47.10;;;21.20;;
3333;SDS011;1679;50.392;8.008;2024-01-11T00:10:26;42.63;;;20.77;;
3333;SDS011;1679;50.392;8.008;2024-01-11T00:12:51;44.03;;;20.90;;
3333;SDS011;1679;50.392;8.008;2024-01-11T00:15:17;41.17;;;19.77;;
3333;SDS011;1679;50.392;8.008;2024-01-11T00:17:43;43.37;;;17.97;;
3333;SDS011;1679;50.392;8.008;2024-01-11T00:20:09;43.20;;;19.60;;
3333;SDS011;1679;50.392;8.008;2024-01-11T00:22:35;47.27;;;19.10;;
3333;SDS011;1679;50.392;8.008;2024-01-11T00:25:01;40.67;;;18.70;;
3333;SDS011;1679;50.392;8.008;2024-01-11T00:27:26;40.67;;;19.43;;
3333;SDS011;1679;50.392;8.008;2024-01-11T00:29:53;39.50;;;17.50;;
3333;SDS011;1679;50.392;8.008;2024-01-11T00:32:18;42.23;;;19.63;;
3333;SDS011;1679;50.392;8.008;2024-01-11T00:34:46;43.47;;;20.67;;
3333;SDS011;1679;50.392;8.008;2024-01-11T00:37:12;43.13;;;19.50;;
3333;SDS011;1679;50.392;8.008;2024-01-11T00:39:37;37.70;;;17.70;;
3333;SDS011;1679;50.392;8.008;2024-01-11T00:42:03;39.03;;;18.60;;
3333;SDS011;1679;50.392;8.008;2024-01-11T00:44:29;40.20;;;19.87;;
3333;SDS011;1679;50.392;8.008;2024-01-11T00:46:54;41.70;;;18.77;;
3333;SDS011;1679;50.392;8.008;2024-01-11T00:49:21;49.13;;;19.77;;
3333;SDS011;1679;50.392;8.008;2024-01-11T00:51:47;39.10;;;19.97;;
3333;SDS011;1679;50.392;8.008;2024-01-11T00:54:12;47.83;;;20.13;;
3333;SDS011;1679;50.392;8.008;2024-01-11T00:56:38;37.10;;;19.97;;
3333;SDS011;1679;50.392;8.008;2024-01-11T00:59:03;41.20;;;20.53;;
3333;SDS011;1679;50.392;8.008;2024-01-11T01:01:29;45.83;;;20.70;;
3333;SDS011;1679;50.392;8.008;2024-01-11T01:03:55;38.97;;;20.23;;
3333;SDS011;1679;50.392;8.008;2024-01-11T01:06:20;39.40;;;20.00;;
3333;SDS011;1679;50.392;8.008;2024-01-11T01:08:47;44.40;;;20.27;;
3333;SDS011;1679;50.392;8.008;2024-01-11T01:11:13;38.23;;;19.17;;
3333;SDS011;1679;50.392;8.008;2024-01-11T01:13:38;49.13;;;19.47;;
3333;SDS011;1679;50.392;8.008;2024-01-11T01:16:04;36.83;;;18.07;;
3333;SDS011;1679;50.392;8.008;2024-01-11T01:18:30;38.83;;;17.17;;
3333;SDS011;1679;50.392;8.008;2024-01-11T01:20:56;36.20;;;17.90;;
3333;SDS011;1679;50.392;8.008;2024-01-11T01:23:21;43.40;;;18.83;;
3333;SDS011;1679;50.392;8.008;2024-01-11T01:25:47;43.07;;;19.10;;
3333;SDS011;1679;50.392;8.008;2024-01-11T01:28:13;44.27;;;20.70;;
3333;SDS011;1679;50.392;8.008;2024-01-11T01:30:39;43.17;;;18.50;;
3333;SDS011;1679;50.392;8.008;2024-01-11T01:33:05;43.43;;;19.50;;
3333;SDS011;1679;50.392;8.008;2024-01-11T01:35:30;38.37;;;19.23;;
3333;SDS011;1679;50.392;8.008;2024-01-11T01:37:56;41.90;;;19.63;;
3333;SDS011;1679;50.392;8.008;2024-01-11T01:40:22;36.37;;;16.50;;
3333;SDS011;1679;50.392;8.008;2024-01-11T01:42:47;42.27;;;19.90;;
3333;SDS011;1679;50.392;8.008;2024-01-11T01:45:15;42.93;;;20.60;;
3333;SDS011;1679;50.392;8.008;2024-01-11T01:47:42;49.93;;;19.70;;
3333;SDS011;1679;50.392;8.008;2024-01-11T01:50:09;40.57;;;19.00;;
3333;SDS011;1679;50.392;8.008;2024-01-11T01:52:35;47.33;;;18.60;;
3333;SDS011;1679;50.392;8.008;2024-01-11T01:55:02;41.67;;;18.10;;
3333;SDS011;1679;50.392;8.008;2024-01-11T01:57:31;43.20;;;19.47;;
3333;SDS011;1679;50.392;8.008;2024-01-11T01:59:59;41.10;;;20.03;;
3333;SDS011;1679;50.392;8.008;2024-01-11T02:02:25;45.13;;;19.93;;
3333;SDS011;1679;50.392;8.008;2024-01-11T02:04:53;37.93;;;17.63;;
3333;SDS011;1679;50.392;8.008;2024-01-11T02:07:18;41.63;;;17.77;;
3333;SDS011;1679;50.392;8.008;2024-01-11T02:09:44;44.50;;;18.90;;
3333;SDS011;1679;50.392;8.008;2024-01-11T02:12:10;41.33;;;18.17;;
3333;SDS011;1679;50.392;8.008;2024-01-11T02:14:38;35.27;;;18.50;;
3333;SDS011;1679;50.392;8.008;2024-01-11T02:17:03;35.73;;;16.87;;
3333;SDS011;1679;50.392;8.008;2024-01-11T02:19:29;41.53;;;19.87;;
3333;SDS011;1679;50.392;8.008;2024-01-11T02:21:55;39.90;;;19.30;;
3333;SDS011;1679;50.392;8.008;2024-01-11T02:24:24;36.47;;;18.73;;
3333;SDS011;1679;50.392;8.008;2024-01-11T02:27:03;38.53;;;17.90;;
3333;SDS011;1679;50.392;8.008;2024-01-11T02:29:29;47.27;;;18.77;;
3333;SDS011;1679;50.392;8.008;2024-01-11T02:31:56;44.87;;;20.03;;
3333;SDS011;1679;50.392;8.008;2024-01-11T02:34:22;51.30;;;21.03;;
3333;SDS011;1679;50.392;8.008;2024-01-11T02:36:49;39.57;;;21.10;;
3333;SDS011;1679;50.392;8.008;2024-01-11T02:39:16;38.60;;;18.93;;
3333;SDS011;1679;50.392;8.008;2024-01-11T02:41:43;43.90;;;18.30;;
3333;SDS011;1679;50.392;8.008;2024-01-11T02:44:09;40.43;;;18.10;;
3333;SDS011;1679;50.392;8.008;2024-01-11T02:46:36;42.07;;;18.00;;
3333;SDS011;1679;50.392;8.008;2024-01-11T02:49:03;41.53;;;17.33;;
3333;SDS011;1679;50.392;8.008;2024-01-11T02:51:28;41.90;;;19.53;;
3333;SDS011;1679;50.392;8.008;2024-01-11T02:53:54;40.90;;;18.17;;
3333;SDS011;1679;50.392;8.008;2024-01-11T02:56:20;40.13;;;17.47;;
3333;SDS011;1679;50.392;8.008;2024-01-11T02:58:45;48.97;;;20.57;;
3333;SDS011;1679;50.392;8.008;2024-01-11T03:01:10;40.30;;;19.13;;
3333;SDS011;1679;50.392;8.008;2024-01-11T03:03:37;36.90;;;18.20;;
3333;SDS011;1679;50.392;8.008;2024-01-11T03:06:03;38.20;;;17.53;;
3333;SDS011;1679;50.392;8.008;2024-01-11T03:08:29;35.13;;;16.80;;
3333;SDS011;1679;50.392;8.008;2024-01-11T03:10:56;44.60;;;19.67;;
3333;SDS011;1679;50.392;8.008;2024-01-11T03:13:22;42.63;;;18.33;;
3333;SDS011;1679;50.392;8.008;2024-01-11T03:15:48;35.97;;;18.50;;
3333;SDS011;1679;50.392;8.008;2024-01-11T03:18:13;42.07;;;16.23;;
3333;SDS011;1679;50.392;8.008;2024-01-11T03:20:39;40.00;;;17.63;;
3333;SDS011;1679;50.392;8.008;2024-01-11T03:23:05;31.43;;;17.00;;
3333;SDS011;1679;50.392;8.008;2024-01-11T03:25:30;37.97;;;18.30;;
3333;SDS011;1679;50.392;8.008;2024-01-11T03:27:57;36.53;;;17.17;;
3333;SDS011;1679;50.392;8.008;2024-01-11T03:30:23;39.90;;;16.73;;
3333;SDS011;1679;50.392;8.008;2024-01-11T03:32:49;37.13;;;17.17;;
3333;SDS011;1679;50.392;8.008;2024-01-11T03:35:15;37.53;;;19.37;;
3333;SDS011;1679;50.392;8.008;2024-01-11T03:37:40;38.90;;;19.60;;
3333;SDS011;1679;50.392;8.008;2024-01-11T03:40:06;37.83;;;18.17;;
3333;SDS011;1679;50.392;8.008;2024-01-11T03:42:32;32.27;;;15.43;;
3333;SDS011;1679;50.392;8.008;2024-01-11T03:44:57;38.67;;;17.60;;
3333;SDS011;1679;50.392;8.008;2024-01-11T03:47:24;31.80;;;16.80;;
3333;SDS011;1679;50.392;8.008;2024-01-11T03:49:51;37.43;;;18.00;;
3333;SDS011;1679;50.392;8.008;2024-01-11T03:52:16;43.00;;;16.87;;
3333;SDS011;1679;50.392;8.008;2024-01-11T03:54:42;42.13;;;18.67;;
3333;SDS011;1679;50.392;8.008;2024-01-11T03:57:07;33.30;;;14.93;;
3333;SDS011;1679;50.392;8.008;2024-01-11T03:59:33;37.83;;;16.53;;
3333;SDS011;1679;50.392;8.008;2024-01-11T04:02:00;33.73;;;16.50;;
3333;SDS011;1679;50.392;8.008;2024-01-11T04:04:25;37.50;;;17.27;;
3333;SDS011;1679;50.392;8.008;2024-01-11T04:06:51;38.73;;;19.27;;
3333;SDS011;1679;50.392;8.008;2024-01-11T04:09:17;35.63;;;17.97;;
3333;SDS011;1679;50.392;8.008;2024-01-11T04:11:42;40.57;;;16.60;;
3333;SDS011;1679;50.392;8.008;2024-01-11T04:14:08;33.17;;;17.77;;
3333;SDS011;1679;50.392;8.008;2024-01-11T04:16:33;39.53;;;17.67;;
3333;SDS011;1679;50.392;8.008;2024-01-11T04:19:04;43.53;;;19.17;;
3333;SDS011;1679;50.392;8.008;2024-01-11T04:21:29;35.60;;;18.50;;
3333;SDS011;1679;50.392;8.008;2024-01-11T04:23:55;41.27;;;20.10;;
3333;SDS011;1679;50.392;8.008;2024-01-11T04:26:21;36.80;;;17.17;;
3333;SDS011;1679;50.392;8.008;2024-01-11T04:28:47;39.00;;;18.30;;
3333;SDS011;1679;50.392;8.008;2024-01-11T04:31:16;32.73;;;17.03;;
3333;SDS011;1679;50.392;8.008;2024-01-11T04:33:42;42.33;;;20.50;;
3333;SDS011;1679;50.392;8.008;2024-01-11T04:36:08;42.97;;;18.77;;
3333;SDS011;1679;50.392;8.008;2024-01-11T04:38:35;40.13;;;18.73;;
3333;SDS011;1679;50.392;8.008;2024-01-11T04:41:02;39.03;;;18.37;;
3333;SDS011;1679;50.392;8.008;2024-01-11T04:43:32;44.00;;;18.80;;
3333;SDS011;1679;50.392;8.008;2024-01-11T04:45:59;47.67;;;19.57;;
3333;SDS011;1679;50.392;8.008;2024-01-11T04:48:24;37.17;;;18.20;;
3333;SDS011;1679;50.392;8.008;2024-01-11T04:50:49;42.03;;;17.97;;
3333;SDS011;1679;50.392;8.008;2024-01-11T04:53:15;47.50;;;18.67;;
3333;SDS011;1679;50.392;8.008;2024-01-11T04:55:40;43.80;;;18.30;;
3333;SDS011;1679;50.392;8.008;2024-01-11T04:58:06;42.27;;;18.37;;
3333;SDS011;1679;50.392;8.008;2024-01-11T05:00:31;36.97;;;19.60;;
3333;SDS011;1679;50.392;8.008;2024-01-11T05:02:57;40.57;;;17.27;;
3333;SDS011;1679;50.392;8.008;2024-01-11T05:05:23;37.33;;;17.77;;
3333;SDS011;1679;50.392;8.008;2024-01-11T05:07:49;31.20;;;17.53;;
3333;SDS011;1679;50.392;8.008;2024-01-11T05:10:14;36.90;;;18.13;;
3333;SDS011;1679;50.392;8.008;2024-01-11T05:12:41;40.80;;;19.00;;
3333;SDS011;1679;50.392;8.008;2024-01-11T05:15:08;41.87;;;18.70;;
3333;SDS011;1679;50.392;8.008;2024-01-11T05:17:34;38.40;;;17.80;;
3333;SDS011;1679;50.392;8.008;2024-01-11T05:19:59;42.17;;;19.80;;
3333;SDS011;1679;50.392;8.008;2024-01-11T05:22:25;32.87;;;17.80;;
3333;SDS011;1679;50.392;8.008;2024-01-11T05:24:50;38.10;;;18.80;;
3333;SDS011;1679;50.392;8.008;2024-01-11T05:27:16;45.43;;;19.60;;
3333;SDS011;1679;50.392;8.008;2024-01-11T05:29:41;48.77;;;18.83;;
3333;SDS011;1679;50.392;8.008;2024-01-11T05:32:07;40.07;;;16.67;;
3333;SDS011;1679;50.392;8.008;2024-01-11T05:34:32;39.40;;;15.00;;
3333;SDS011;1679;50.392;8.008;2024-01-11T05:36:58;27.83;;;14.83;;
3333;SDS011;1679;50.392;8.008;2024-01-11T05:39:23;29.03;;;14.97;;
3333;SDS011;1679;50.392;8.008;2024-01-11T05:41:49;38.30;;;16.17;;
3333;SDS011;1679;50.392;8.008;2024-01-11T05:44:17;37.33;;;16.40;;
3333;SDS011;1679;50.392;8.008;2024-01-11T05:46:43;33.20;;;15.67;;
3333;SDS011;1679;50.392;8.008;2024-01-11T05:49:09;34.27;;;15.93;;
3333;SDS011;1679;50.392;8.008;2024-01-11T05:51:34;32.33;;;16.07;;
3333;SDS011;1679;50.392;8.008;2024-01-11T05:54:00;33.27;;;14.77;;
3333;SDS011;1679;50.392;8.008;2024-01-11T05:56:27;31.47;;;16.20;;
3333;SDS011;1679;50.392;8.008;2024-01-11T05:58:52;33.77;;;17.03;;
3333;SDS011;1679;50.392;8.008;2024-01-11T06:01:18;33.90;;;16.53;;
3333;SDS011;1679;50.392;8.008;2024-01-11T06:03:44;34.40;;;15.93;;
3333;SDS011;1679;50.392;8.008;2024-01-11T06:06:09;36.13;;;18.63;;
3333;SDS011;1679;50.392;8.008;2024-01-11T06:08:35;33.73;;;16.87;;
3333;SDS011;1679;50.392;8.008;2024-01-11T06:11:00;38.53;;;17.33;;
3333;SDS011;1679;50.392;8.008;2024-01-11T06:13:26;36.20;;;17.53;;
3333;SDS011;1679;50.392;8.008;2024-01-11T06:15:52;29.90;;;15.80;;
3333;SDS011;1679;50.392;8.008;2024-01-11T06:18:18;36.87;;;17.70;;
3333;SDS011;1679;50.392;8.008;2024-01-11T06:20:43;31.03;;;14.60;;
3333;SDS011;1679;50.392;8.008;2024-01-11T06:23:09;54.97;;;17.80;;
3333;SDS011;1679;50.392;8.008;2024-01-11T06:25:34;32.87;;;15.80;;
3333;SDS011;1679;50.392;8.008;2024-01-11T06:28:00;32.80;;;14.93;;
3333;SDS011;1679;50.392;8.008;2024-01-11T06:30:28;36.20;;;13.90;;
3333;SDS011;1679;50.392;8.008;2024-01-11T06:32:54;33.43;;;16.80;;
3333;SDS011;1679;50.392;8.008;2024-01-11T06:35:19;27.97;;;14.47;;
3333;SDS011;1679;50.392;8.008;2024-01-11T06:37:45;34.47;;;16.80;;
3333;SDS011;1679;50.392;8.008;2024-01-11T06:40:11;39.37;;;17.63;;
3333;SDS011;1679;50.392;8.008;2024-01-11T06:42:36;42.60;;;18.80;;
3333;SDS011;1679;50.392;8.008;2024-01-11T06:45:02;42.53;;;16.30;;
3333;SDS011;1679;50.392;8.008;2024-01-11T06:47:28;36.20;;;17.17;;
3333;SDS011;1679;50.392;8.008;2024-01-11T06:49:55;34.77;;;17.40;;
3333;SDS011;1679;50.392;8.008;2024-01-11T06:52:20;45.53;;;21.17;;
3333;SDS011;1679;50.392;8.008;2024-01-11T06:54:47;38.93;;;17.90;;
3333;SDS011;1679;50.392;8.008;2024-01-11T06:57:13;37.87;;;15.93;;
3333;SDS011;1679;50.392;8.008;2024-01-11T06:59:39;35.80;;;16.97;;
3333;SDS011;1679;50.392;8.008;2024-01-11T07:02:05;44.80;;;19.50;;
3333;SDS011;1679;50.392;8.008;2024-01-11T07:04:30;52.93;;;16.70;;
3333;SDS011;1679;50.392;8.008;2024-01-11T07:06:56;37.50;;;17.50;;
3333;SDS011;1679;50.392;8.008;2024-01-11T07:09:22;36.20;;;19.73;;
3333;SDS011;1679;50.392;8.008;2024-01-11T07:11:47;30.23;;;15.03;;
3333;SDS011;1679;50.392;8.008;2024-01-11T07:14:13;33.50;;;16.43;;
3333;SDS011;1679;50.392;8.008;2024-01-11T07:16:38;32.53;;;17.83;;
3333;SDS011;1679;50.392;8.008;2024-01-11T07:19:04;38.60;;;19.60;;
3333;SDS011;1679;50.392;8.008;2024-01-11T07:21:31;36.63;;;16.83;;
3333;SDS011;1679;50.392;8.008;2024-01-11T07:23:58;35.70;;;17.47;;
3333;SDS011;1679;50.392;8.008;2024-01-11T07:26:24;34.27;;;15.60;;
3333;SDS011;1679;50.392;8.008;2024-01-11T07:28:50;29.20;;;15.13;;
3333;SDS011;1679;50.392;8.008;2024-01-11T07:31:16;36.20;;;17.10;;
3333;SDS011;1679;50.392;8.008;2024-01-11T07:33:42;37.27;;;16.63;;
3333;SDS011;1679;50.392;8.008;2024-01-11T07:36:08;36.87;;;18.77;;
3333;SDS011;1679;50.392;8.008;2024-01-11T07:38:34;39.80;;;17.47;;
3333;SDS011;1679;50.392;8.008;2024-01-11T07:41:00;45.97;;;18.50;;
3333;SDS011;1679;50.392;8.008;2024-01-11T07:43:26;50.13;;;19.00;;
3333;SDS011;1679;50.392;8.008;2024-01-11T07:45:53;39.30;;;18.40;;
3333;SDS011;1679;50.392;8.008;2024-01-11T07:48:19;39.50;;;17.50;;
3333;SDS011;1679;50.392;8.008;2024-01-11T07:50:45;36.87;;;17.93;;
3333;SDS011;1679;50.392;8.008;2024-01-11T07:53:10;42.87;;;20.70;;
3333;SDS011;1679;50.392;8.008;2024-01-11T07:55:36;48.90;;;20.40;;
3333;SDS011;1679;50.392;8.008;2024-01-11T07:58:02;47.57;;;18.53;;
3333;SDS011;1679;50.392;8.008;2024-01-11T08:00:28;46.53;;;16.90;;
3333;SDS011;1679;50.392;8.008;2024-01-11T08:02:53;29.20;;;14.87;;
3333;SDS011;1679;50.392;8.008;2024-01-11T08:05:19;43.90;;;19.07;;
3333;SDS011;1679;50.392;8.008;2024-01-11T08:07:46;39.73;;;17.87;;
3333;SDS011;1679;50.392;8.008;2024-01-11T08:10:11;45.90;;;19.90;;
3333;SDS011;1679;50.392;8.008;2024-01-11T08:12:37;40.90;;;18.63;;
3333;SDS011;1679;50.392;8.008;2024-01-11T08:15:03;37.03;;;18.97;;
3333;SDS011;1679;50.392;8.008;2024-01-11T08:17:28;35.70;;;17.63;;
3333;SDS011;1679;50.392;8.008;2024-01-11T08:19:54;42.13;;;19.10;;
3333;SDS011;1679;50.392;8.008;2024-01-11T08:22:21;34.40;;;19.27;;
3333;SDS011;1679;50.392;8.008;2024-01-11T08:24:47;40.57;;;18.00;;
3333;SDS011;1679;50.392;8.008;2024-01-11T08:27:12;42.40;;;19.33;;
3333;SDS011;1679;50.392;8.008;2024-01-11T08:29:40;37.93;;;19.27;;
3333;SDS011;1679;50.392;8.008;2024-01-11T08:32:05;46.90;;;21.83;;
3333;SDS011;1679;50.392;8.008;2024-01-11T08:34:31;41.43;;;17.17;;
3333;SDS011;1679;50.392;8.008;2024-01-11T08:36:57;34.40;;;15.23;;
3333;SDS011;1679;50.392;8.008;2024-01-11T08:39:23;34.77;;;17.23;;
3333;SDS011;1679;50.392;8.008;2024-01-11T08:41:49;34.00;;;17.40;;
3333;SDS011;1679;50.392;8.008;2024-01-11T08:44:16;40.67;;;18.90;;
3333;SDS011;1679;50.392;8.008;2024-01-11T08:46:43;34.53;;;17.57;;
3333;SDS011;1679;50.392;8.008;2024-01-11T08:49:09;38.53;;;16.77;;
3333;SDS011;1679;50.392;8.008;2024-01-11T08:51:34;35.93;;;16.97;;
3333;SDS011;1679;50.392;8.008;2024-01-11T08:54:00;41.93;;;16.70;;
3333;SDS011;1679;50.392;8.008;2024-01-11T08:56:26;34.13;;;16.77;;
3333;SDS011;1679;50.392;8.008;2024-01-11T08:58:51;31.73;;;16.30;;
3333;SDS011;1679;50.392;8.008;2024-01-11T09:01:17;38.50;;;17.10;;
3333;SDS011;1679;50.392;8.008;2024-01-11T09:03:47;43.93;;;16.33;;
3333;SDS011;1679;50.392;8.008;2024-01-11T09:06:13;32.27;;;17.80;;
3333;SDS011;1679;50.392;8.008;2024-01-11T09:08:39;32.53;;;16.00;;
3333;SDS011;1679;50.392;8.008;2024-01-11T09:11:06;32.67;;;18.37;;
3333;SDS011;1679;50.392;8.008;2024-01-11T09:13:31;39.77;;;16.73;;
3333;SDS011;1679;50.392;8.008;2024-01-11T09:15:57;33.77;;;17.13;;
3333;SDS011;1679;50.392;8.008;2024-01-11T09:18:23;36.63;;;17.37;;
3333;SDS011;1679;50.392;8.008;2024-01-11T09:20:49;31.97;;;17.00;;
3333;SDS011;1679;50.392;8.008;2024-01-11T09:23:15;34.90;;;15.90;;
3333;SDS011;1679;50.392;8.008;2024-01-11T09:25:41;34.77;;;17.60;;
3333;SDS011;1679;50.392;8.008;2024-01-11T09:28:07;34.23;;;18.13;;
3333;SDS011;1679;50.392;8.008;2024-01-11T09:30:33;40.07;;;18.63;;
3333;SDS011;1679;50.392;8.008;2024-01-11T09:32:58;34.00;;;17.47;;
3333;SDS011;1679;50.392;8.008;2024-01-11T09:35:24;39.13;;;19.70;;
3333;SDS011;1679;50.392;8.008;2024-01-11T09:37:51;36.43;;;16.50;;
3333;SDS011;1679;50.392;8.008;2024-01-11T09:40:17;37.30;;;17.60;;
3333;SDS011;1679;50.392;8.008;2024-01-11T09:42:43;32.97;;;16.63;;
3333;SDS011;1679;50.392;8.008;2024-01-11T09:45:12;38.63;;;18.07;;
3333;SDS011;1679;50.392;8.008;2024-01-11T09:47:40;39.50;;;19.33;;
3333;SDS011;1679;50.392;8.008;2024-01-11T09:50:07;45.93;;;21.33;;
3333;SDS011;1679;50.392;8.008;2024-01-11T09:52:34;42.33;;;19.90;;
3333;SDS011;1679;50.392;8.008;2024-01-11T09:55:01;33.63;;;16.77;;
3333;SDS011;1679;50.392;8.008;2024-01-11T09:57:31;28.43;;;16.37;;
3333;SDS011;1679;50.392;8.008;2024-01-11T09:59:58;37.97;;;19.10;;
3333;SDS011;1679;50.392;8.008;2024-01-11T10:02:24;35.77;;;19.40;;
3333;SDS011;1679;50.392;8.008;2024-01-11T10:04:53;44.17;;;19.13;;
3333;SDS011;1679;50.392;8.008;2024-01-11T10:07:22;41.93;;;21.60;;
3333;SDS011;1679;50.392;8.008;2024-01-11T10:09:52;42.57;;;22.50;;
3333;SDS011;1679;50.392;8.008;2024-01-11T10:12:18;41.70;;;20.40;;
3333;SDS011;1679;50.392;8.008;2024-01-11T10:14:45;42.93;;;20.27;;
3333;SDS011;1679;50.392;8.008;2024-01-11T10:17:12;41.90;;;20.47;;
3333;SDS011;1679;50.392;8.008;2024-01-11T10:19:39;41.93;;;21.97;;
3333;SDS011;1679;50.392;8.008;2024-01-11T10:22:04;46.70;;;20.13;;
3333;SDS011;1679;50.392;8.008;2024-01-11T10:24:30;45.47;;;21.00;;
3333;SDS011;1679;50.392;8.008;2024-01-11T10:26:57;42.30;;;23.30;;
3333;SDS011;1679;50.392;8.008;2024-01-11T10:29:32;38.00;;;18.77;;
3333;SDS011;1679;50.392;8.008;2024-01-11T10:32:00;34.30;;;19.17;;
3333;SDS011;1679;50.392;8.008;2024-01-11T10:34:26;39.90;;;20.77;;
3333;SDS011;1679;50.392;8.008;2024-01-11T10:36:51;37.40;;;20.20;;
3333;SDS011;1679;50.392;8.008;2024-01-11T10:39:17;35.17;;;20.37;;
3333;SDS011;1679;50.392;8.008;2024-01-11T10:41:47;42.00;;;19.67;;
3333;SDS011;1679;50.392;8.008;2024-01-11T10:44:19;41.27;;;19.60;;
3333;SDS011;1679;50.392;8.008;2024-01-11T10:46:49;42.23;;;19.63;;
3333;SDS011;1679;50.392;8.008;2024-01-11T10:49:18;35.60;;;20.30;;
3333;SDS011;1679;50.392;8.008;2024-01-11T10:51:55;43.80;;;21.47;;
3333;SDS011;1679;50.392;8.008;2024-01-11T10:54:24;53.33;;;24.20;;
3333;SDS011;1679;50.392;8.008;2024-01-11T10:56:51;44.37;;;21.60;;
3333;SDS011;1679;50.392;8.008;2024-01-11T10:59:18;40.37;;;20.07;;
3333;SDS011;1679;50.392;8.008;2024-01-11T11:01:50;40.77;;;20.10;;
3333;SDS011;1679;50.392;8.008;2024-01-11T11:04:19;40.23;;;20.27;;
3333;SDS011;1679;50.392;8.008;2024-01-11T11:06:48;41.47;;;22.50;;
3333;SDS011;1679;50.392;8.008;2024-01-11T11:09:15;60.23;;;25.90;;
3333;SDS011;1679;50.392;8.008;2024-01-11T11:11:44;53.97;;;24.40;;
3333;SDS011;1679;50.392;8.008;2024-01-11T11:14:12;35.73;;;19.80;;
3333;SDS011;1679;50.392;8.008;2024-01-11T11:16:39;39.23;;;20.00;;
3333;SDS011;1679;50.392;8.008;2024-01-11T11:19:05;41.10;;;19.90;;
3333;SDS011;1679;50.392;8.008;2024-01-11T11:21:31;36.77;;;17.87;;
3333;SDS011;1679;50.392;8.008;2024-01-11T11:23:58;37.83;;;18.10;;
3333;SDS011;1679;50.392;8.008;2024-01-11T11:26:25;38.80;;;18.47;;
3333;SDS011;1679;50.392;8.008;2024-01-11T11:28:51;43.47;;;21.27;;
3333;SDS011;1679;50.392;8.008;2024-01-11T11:34:12;42.53;;;20.00;;
3333;SDS011;1679;50.392;8.008;2024-01-11T11:36:41;40.33;;;21.47;;
3333;SDS011;1679;50.392;8.008;2024-01-11T11:39:10;37.47;;;19.87;;
3333;SDS011;1679;50.392;8.008;2024-01-11T11:41:38;36.73;;;20.90;;
3333;SDS011;1679;50.392;8.008;2024-01-11T11:44:05;43.80;;;20.80;;
3333;SDS011;1679;50.392;8.008;2024-01-11T11:46:34;39.40;;;21.90;;
3333;SDS011;1679;50.392;8.008;2024-01-11T11:48:59;43.87;;;23.00;;
3333;SDS011;1679;50.392;8.008;2024-01-11T11:51:25;47.20;;;22.10;;
3333;SDS011;1679;50.392;8.008;2024-01-11T11:53:51;37.43;;;20.83;;
3333;SDS011;1679;50.392;8.008;2024-01-11T11:56:18;40.50;;;20.13;;
3333;SDS011;1679;50.392;8.008;2024-01-11T11:58:45;40.53;;;21.07;;
3333;SDS011;1679;50.392;8.008;2024-01-11T12:01:12;47.20;;;21.93;;
3333;SDS011;1679;50.392;8.008;2024-01-11T12:03:43;45.23;;;21.43;;
3333;SDS011;1679;50.392;8.008;2024-01-11T12:06:19;44.20;;;22.30;;
3333;SDS011;1679;50.392;8.008;2024-01-11T12:08:48;42.40;;;21.33;;
3333;SDS011;1679;50.392;8.008;2024-01-11T12:11:14;40.40;;;22.87;;
3333;SDS011;1679;50.392;8.008;2024-01-11T12:13:42;38.17;;;20.80;;
3333;SDS011;1679;50.392;8.008;2024-01-11T12:16:10;42.50;;;23.53;;
3333;SDS011;1679;50.392;8.008;2024-01-11T12:18:36;35.23;;;19.27;;
3333;SDS011;1679;50.392;8.008;2024-01-11T12:21:02;40.37;;;23.30;;
3333;SDS011;1679;50.392;8.008;2024-01-11T12:23:28;44.67;;;22.40;;
3333;SDS011;1679;50.392;8.008;2024-01-11T12:25:58;43.27;;;22.53;;
3333;SDS011;1679;50.392;8.008;2024-01-11T12:28:25;38.97;;;19.93;;
3333;SDS011;1679;50.392;8.008;2024-01-11T12:30:51;43.40;;;21.53;;
3333;SDS011;1679;50.392;8.008;2024-01-11T12:33:17;35.77;;;19.80;;
3333;SDS011;1679;50.392;8.008;2024-01-11T12:35:43;37.20;;;21.67;;
3333;SDS011;1679;50.392;8.008;2024-01-11T12:38:10;35.60;;;20.10;;
3333;SDS011;1679;50.392;8.008;2024-01-11T12:40:36;32.13;;;19.17;;
3333;SDS011;1679;50.392;8.008;2024-01-11T12:43:03;39.07;;;19.30;;
3333;SDS011;1679;50.392;8.008;2024-01-11T12:45:35;35.83;;;20.20;;
3333;SDS011;1679;50.392;8.008;2024-01-11T12:48:01;34.20;;;21.30;;
3333;SDS011;1679;50.392;8.008;2024-01-11T12:50:30;39.47;;;20.30;;
3333;SDS011;1679;50.392;8.008;2024-01-11T12:55:46;34.63;;;20.30;;
3333;SDS011;1679;50.392;8.008;2024-01-11T12:58:27;38.03;;;19.63;;
3333;SDS011;1679;50.392;8.008;2024-01-11T13:00:54;35.30;;;19.90;;
3333;SDS011;1679;50.392;8.008;2024-01-11T13:03:20;35.37;;;18.53;;
3333;SDS011;1679;50.392;8.008;2024-01-11T13:05:46;35.83;;;19.07;;
3333;SDS011;1679;50.392;8.008;2024-01-11T13:08:11;37.27;;;20.27;;
3333;SDS011;1679;50.392;8.008;2024-01-11T13:10:37;34.10;;;18.10;;
3333;SDS011;1679;50.392;8.008;2024-01-11T13:13:05;39.03;;;20.47;;
3333;SDS011;1679;50.392;8.008;2024-01-11T13:15:31;33.37;;;18.50;;
3333;SDS011;1679;50.392;8.008;2024-01-11T13:17:57;32.33;;;18.50;;
3333;SDS011;1679;50.392;8.008;2024-01-11T13:20:23;37.97;;;19.13;;
3333;SDS011;1679;50.392;8.008;2024-01-11T13:25:40;34.43;;;18.70;;
3333;SDS011;1679;50.392;8.008;2024-01-11T13:28:06;38.63;;;19.07;;
3333;SDS011;1679;50.392;8.008;2024-01-11T13:30:32;37.40;;;19.87;;
3333;SDS011;1679;50.392;8.008;2024-01-11T13:32:58;39.20;;;20.93;;
3333;SDS011;1679;50.392;8.008;2024-01-11T13:35:23;31.67;;;17.93;;
3333;SDS011;1679;50.392;8.008;2024-01-11T13:37:49;37.33;;;18.93;;
3333;SDS011;1679;50.392;8.008;2024-01-11T13:40:15;34.03;;;19.33;;
3333;SDS011;1679;50.392;8.008;2024-01-11T13:42:41;36.33;;;19.73;;
3333;SDS011;1679;50.392;8.008;2024-01-11T13:45:07;28.87;;;17.80;;
3333;SDS011;1679;50.392;8.008;2024-01-11T13:47:34;32.60;;;18.23;;
3333;SDS011;1679;50.392;8.008;2024-01-11T13:50:00;36.00;;;19.27;;
3333;SDS011;1679;50.392;8.008;2024-01-11T13:52:26;36.53;;;19.90;;
3333;SDS011;1679;50.392;8.008;2024-01-11T13:54:51;32.93;;;19.27;;
3333;SDS011;1679;50.392;8.008;2024-01-11T13:57:17;34.47;;;20.30;;
3333;SDS011;1679;50.392;8.008;2024-01-11T13:59:42;36.77;;;19.63;;
3333;SDS011;1679;50.392;8.008;2024-01-11T14:02:08;37.40;;;19.70;;
3333;SDS011;1679;50.392;8.008;2024-01-11T14:04:33;35.43;;;20.90;;
3333;SDS011;1679;50.392;8.008;2024-01-11T14:07:00;33.67;;;18.80;;
3333;SDS011;1679;50.392;8.008;2024-01-11T14:09:25;36.87;;;19.20;;
3333;SDS011;1679;50.392;8.008;2024-01-11T14:11:51;31.70;;;18.70;;
3333;SDS011;1679;50.392;8.008;2024-01-11T14:14:17;38.57;;;20.07;;
3333;SDS011;1679;50.392;8.008;2024-01-11T14:16:44;37.33;;;19.10;;
3333;SDS011;1679;50.392;8.008;2024-01-11T14:19:10;30.00;;;17.60;;
3333;SDS011;1679;50.392;8.008;2024-01-11T14:21:36;31.60;;;18.37;;
3333;SDS011;1679;50.392;8.008;2024-01-11T14:24:02;32.93;;;17.70;;
3333;SDS011;1679;50.392;8.008;2024-01-11T14:26:31;33.73;;;18.30;;
3333;SDS011;1679;50.392;8.008;2024-01-11T14:28:58;30.83;;;17.50;;
3333;SDS011;1679;50.392;8.008;2024-01-11T14:31:24;34.33;;;19.00;;
3333;SDS011;1679;50.392;8.008;2024-01-11T14:33:49;30.83;;;17.00;;
3333;SDS011;1679;50.392;8.008;2024-01-11T14:36:15;33.47;;;17.47;;
3333;SDS011;1679;50.392;8.008;2024-01-11T14:38:42;31.20;;;16.20;;
3333;SDS011;1679;50.392;8.008;2024-01-11T14:41:07;31.60;;;16.37;;
3333;SDS011;1679;50.392;8.008;2024-01-11T14:43:34;28.43;;;16.60;;
3333;SDS011;1679;50.392;8.008;2024-01-11T14:46:01;33.67;;;17.13;;
3333;SDS011;1679;50.392;8.008;2024-01-11T14:48:28;29.63;;;18.10;;
3333;SDS011;1679;50.392;8.008;2024-01-11T14:50:55;60.43;;;33.03;;